Vienna, VA

7:52 AM EDT on July 07, 2015 (GMT -0400)
Northeast Vienna | | Change Station
CLOSE
Current Station
Personal Weather Station
Location: Vienna, VA
Elevation: 354 ft
Nearby Weather Stations

Elev 354 ft 38.92 °N, 77.27 °W | Updated 7 seconds ago

Mostly Cloudy
Mostly Cloudy
72.3 °F
Feels Like 72.3 °F
N
0.0
Wind Variable Wind from SSE
Gusts 0.0 mph

Today
High -- | Low -- °F
--% Chance of Precip.
Yesterday
High -- | Low -- °F
Precip. -- in
5:50 AM 8:37 PM
Waning Gibbous, 65% visible
Pressure 30.07 in
Visibility 0.5 miles
Clouds Overcast 300 ft
Dew Point 71 °F
Humidity 96%
Rainfall 0.00 in
Snow Depth Not available.
UV 0 out of 12
Pollen 3.20 out of 12
Air Quality Not available.
Flu Activity Not available.
SPECI KIAD 071146Z 00000KT 1/2SM R01R/6000FT BR OVC003 22/22 A3007 RMK AO2 SFC VIS 3

More Conditions Fewer Conditions

Pressure 30.07 in
Visibility 0.5 miles
Clouds Overcast 300 ft
Dew Point 71 °F
Humidity 96%
Rainfall 0.00 in
Snow Depth Not available.
UV 0 out of 12
Pollen 3.20 out of 12
Air Quality Not available.
Flu Activity Not available.
SPECI KIAD 071146Z 00000KT 1/2SM R01R/6000FT BR OVC003 22/22 A3007 RMK AO2 SFC VIS 3

More Conditions Fewer Conditions

10-Day Weather Forecast

×

Almanac

Astronomy

Jul. 07, 2015 Rise Set
Actual Time
Civil Twilight
Nautical Twilight
Astronomical Twilight
Moon
Length of Visible Light
Length of Day
Tomorrow will be .
, % of the Moon is Illuminated

Today's Extremes

State Highs State Lows

Community

WunderPhotos

Upload Photos

1,835,770 photos uploaded!

WunderBlogs® & News

Nearby

Air Quality

  Air Quality AQ Index Pollutant
Not available.

Snow Depth

Station Depth Elevation

Earthquake Activity

City Distance Mag. Time & Date
Minimum magnitude displayed is 2.5.

Coastal Water Temperatures

Place Temperature

Stations

Nearby Weather Stations

Station Location Temp. Windchill Dew Point Humidity Wind Precip. Elev Updated Type